Airfield :
LOGIN :

Register | Disclaimer

   EN    FR    IT 

 










Legend :    VFR   Marginal VFR   IFR   Intensive IFR   Very Intensive IFR
Visi :
Ceiling :
>= 8 km
>= 3000ft
5 to 8 km
1000 to 3000 ft
1500m to 5 km
500 to 1000 ft
800 to 1500m
200 to 500 ft
< 800m
< 200 ft
Symbols :   Thunderstorms  Fog  Heavy snow  Heavy precipitations  Wind > 20 kt
SIGMETs :     Misc.  Thunderstorms  Icing  Turbulence  Mountain Waves  Volcanic Ashes







- Airport Elevation : 160 ft
- IATA code : LRT
- Download approach charts


LFRH - Lorient Lann Bihoue

CURRENT METAR :
  • 251200Z AUTO 02013KT 9999 FEW046 BKN100 10/M00 Q1014 BECMG 03015G25KT

EXPIRED METARs :
  • 251130Z AUTO 03011KT 360V070 9999 BKN040 BKN046 BKN100 10/02 Q1014 BECMG 03015G25KT
  • 251100Z AUTO 03011KT 360V060 9999 BKN038 BKN044 OVC086 09/02 Q1014 NOSIG
  • 251030Z AUTO 04011KT 9999 SCT031 BKN039 BKN076 09/03 Q1014 NOSIG
  • 251000Z AUTO 04013KT 9999 SCT030 BKN039 BKN052 09/03 Q1014 NOSIG
  • 250930Z AUTO 03010KT 9999 SCT024 BKN029 BKN070 09/04 Q1014 NOSIG

TAF AMD TAF LFRH
Valid from the 25 at 12:00 until the 26 at 12:00 UTC


251119Z 2512/2612 03015G25KT 9999 SCT030 BKN040
BECMG 2512/2514 SCT045
BECMG 2517/2519 CAVOK
BECMG 2520/2522 33005KT
BECMG 2606/2608 04010KT
TEMPO 2609/2612 04010G20KT 4000 SHRAGS BKN025CB
No reported NOTAMs for that airfield.



MET'MAP, your aeronautical weather chart ! - Copyright ORBIFLY December 2007 - Disclaimer

ORBIFLY MET'MAP TEAM :

Programming & Development : Alexandra Zaïnal
Concept & Development : Baudouin d'Aumeries
Co-Development & Prog : Marc-Olivier Méhu
Technical & hardware support : Manuel Goepfert

Contact : metmap@orbifly.com




SOURCES & CREDITS :

   NOAA